Time;durP1;ratioP1;P1;durP2;ratioP2;P2;SDS_P1;SDS_P2;PMS_P1;PMS_P2;Temp;Humidity;BMP_temperature;BMP_pressure;BME280_temperature;BME280_humidity;BME280_pressure;Samples;Min_cycle;Max_cycle;Signal;HPM_P1;HPM_P2
2022/04/13 00:00:09;;;;;;;10.68;5.78;;;;;;;-146.34;100.00;58536.06;5028116;28;20452;-73
2022/04/13 00:02:34;;;;;;;9.23;5.57;;;;;;;-146.34;100.00;58536.06;5028498;28;20047;-74
2022/04/13 00:05:00;;;;;;;10.68;5.65;;;;;;;-146.34;100.00;58536.06;5029868;28;20030;-74
2022/04/13 00:07:25;;;;;;;13.70;5.57;;;;;;;-146.34;100.00;58536.06;5030869;28;20555;-74
2022/04/13 00:09:51;;;;;;;10.20;5.93;;;;;;;-146.34;100.00;58536.06;5028631;28;20397;-74
2022/04/13 00:12:16;;;;;;;14.88;5.28;;;;;;;-146.34;100.00;58536.06;5030610;28;20068;-73
2022/04/13 00:14:41;;;;;;;12.85;6.53;;;;;;;-146.34;100.00;58536.06;5028062;28;20088;-74
2022/04/13 00:17:07;;;;;;;10.55;4.85;;;;;;;-146.34;100.00;58536.06;5029647;28;20018;-74
2022/04/13 00:19:32;;;;;;;9.10;5.00;;;;;;;-146.34;100.00;58536.06;5029481;28;20030;-74
2022/04/13 00:21:58;;;;;;;13.57;5.07;;;;;;;-146.34;100.00;58536.06;5028938;28;20110;-74
2022/04/13 00:24:23;;;;;;;9.38;4.80;;;;;;;-146.34;100.00;58536.06;5029930;28;20148;-73
2022/04/13 00:26:49;;;;;;;10.80;4.80;;;;;;;-146.34;100.00;58536.06;5030787;28;20045;-73
2022/04/13 00:29:14;;;;;;;9.65;4.43;;;;;;;-146.34;100.00;58536.06;5039559;28;20053;-74
2022/04/13 00:31:39;;;;;;;15.65;5.22;;;;;;;-146.34;100.00;58536.06;5028124;28;20022;-74
2022/04/13 00:34:05;;;;;;;12.40;4.47;;;;;;;-146.34;100.00;58536.06;5028487;28;20049;-74
2022/04/13 00:36:31;;;;;;;10.85;4.47;;;;;;;-146.34;100.00;58536.06;5012250;28;20033;-74
2022/04/13 00:38:56;;;;;;;12.55;5.13;;;;;;;-146.34;100.00;58536.06;5029513;28;20080;-73
2022/04/13 00:41:22;;;;;;;13.27;4.93;;;;;;;-146.34;100.00;58536.06;5030156;28;20034;-74
2022/04/13 00:44:08;;;;;;;11.60;4.00;;;;;;;-146.34;100.00;58536.06;5029368;28;20147;-73
2022/04/13 00:46:34;;;;;;;7.97;4.13;;;;;;;-146.34;100.00;58536.06;5008987;28;20037;-73
2022/04/13 00:49:00;;;;;;;9.00;4.13;;;;;;;-146.34;100.00;58536.06;5028446;28;20028;-73
2022/04/13 00:51:26;;;;;;;9.98;4.00;;;;;;;-146.34;100.00;58536.06;5029811;28;20029;-74
2022/04/13 00:53:52;;;;;;;15.77;4.38;;;;;;;-146.34;100.00;58536.06;5029896;28;20109;-73
2022/04/13 00:56:24;;;;;;;9.70;4.20;;;;;;;-146.34;100.00;58536.06;5029646;28;20025;-74
2022/04/13 00:58:57;;;;;;;15.97;4.73;;;;;;;-146.34;100.00;58536.06;5028870;28;20029;-73
2022/04/13 01:01:24;;;;;;;9.82;4.88;;;;;;;-146.34;100.00;58536.06;5033349;28;20044;-74
2022/04/13 01:03:54;;;;;;;8.45;4.13;;;;;;;-146.34;100.00;58536.06;5033406;28;20090;-74
2022/04/13 01:06:20;;;;;;;7.85;4.18;;;;;;;-146.34;100.00;58536.06;5032783;28;20030;-74
2022/04/13 01:08:49;;;;;;;9.02;3.47;;;;;;;-146.34;100.00;58536.06;5033017;28;20048;-73
2022/04/13 01:11:15;;;;;;;11.15;3.90;;;;;;;-146.34;100.00;58536.06;5030905;28;20451;-74
2022/04/13 01:13:41;;;;;;;11.15;3.80;;;;;;;-146.34;100.00;58536.06;5015822;28;20434;-73
2022/04/13 01:16:06;;;;;;;13.68;3.97;;;;;;;-146.34;100.00;58536.06;5032827;28;20022;-74
2022/04/13 01:18:32;;;;;;;7.45;3.90;;;;;;;-146.34;100.00;58536.06;5011628;28;20030;-73
2022/04/13 01:21:00;;;;;;;9.63;3.90;;;;;;;-146.34;100.00;58536.06;5016360;28;20025;-74
2022/04/13 01:23:25;;;;;;;15.95;4.13;;;;;;;-146.34;100.00;58536.06;5031967;28;20571;-74
2022/04/13 01:25:52;;;;;;;14.43;3.95;;;;;;;-146.34;100.00;58536.06;5030347;28;20128;-74
2022/04/13 01:28:17;;;;;;;9.73;3.97;;;;;;;-146.34;100.00;58536.06;5032329;28;20505;-74
2022/04/13 01:30:43;;;;;;;14.38;4.45;;;;;;;-146.34;100.00;58536.06;5030724;28;20041;-74
2022/04/13 01:33:09;;;;;;;8.63;3.63;;;;;;;-146.34;100.00;58536.06;5033256;28;20036;-73
2022/04/13 01:35:37;;;;;;;9.60;3.58;;;;;;;-146.34;100.00;58536.06;5032020;28;20033;-74
2022/04/13 01:38:03;;;;;;;7.95;3.65;;;;;;;-146.34;100.00;58536.06;5033360;28;20025;-73
2022/04/13 01:40:28;;;;;;;11.02;3.88;;;;;;;-146.34;100.00;58536.06;5024391;28;20037;-73
2022/04/13 01:42:53;;;;;;;7.35;3.67;;;;;;;-146.34;100.00;58536.06;5035437;28;20384;-73
2022/04/13 01:45:22;;;;;;;8.80;4.38;;;;;;;-146.34;100.00;58536.06;5035055;28;20118;-73
2022/04/13 01:47:51;;;;;;;9.38;3.90;;;;;;;-146.34;100.00;58536.06;5010813;28;20465;-74
2022/04/13 01:50:18;;;;;;;6.18;3.63;;;;;;;-146.34;100.00;58536.06;5019720;28;20401;-74
2022/04/13 01:52:45;;;;;;;10.32;3.63;;;;;;;-146.34;100.00;58536.06;5032184;28;20039;-74
2022/04/13 01:55:11;;;;;;;12.07;4.03;;;;;;;-146.34;100.00;58536.06;5031626;28;20462;-73
2022/04/13 01:57:37;;;;;;;11.60;3.53;;;;;;;-146.34;100.00;58536.06;5031048;28;20025;-74
2022/04/13 02:00:05;;;;;;;7.63;3.83;;;;;;;-146.34;100.00;58536.06;5030806;28;20018;-74
2022/04/13 02:02:31;;;;;;;11.63;3.50;;;;;;;-146.34;100.00;58536.06;5031508;28;20033;-74
2022/04/13 02:04:57;;;;;;;6.55;3.60;;;;;;;-146.34;100.00;58536.06;5030721;28;20024;-74
2022/04/13 02:07:22;;;;;;;7.68;3.10;;;;;;;-146.34;100.00;58536.06;5032121;28;20496;-74
2022/04/13 02:09:47;;;;;;;8.13;3.38;;;;;;;-146.34;100.00;58536.06;5030832;28;20036;-74
2022/04/13 02:12:12;;;;;;;7.03;3.70;;;;;;;-146.34;100.00;58536.06;5050282;28;20032;-74
2022/04/13 02:14:38;;;;;;;10.98;3.65;;;;;;;-146.34;100.00;58536.06;5048840;28;20017;-74
2022/04/13 02:17:05;;;;;;;9.65;3.72;;;;;;;-146.34;100.00;58536.06;5032142;28;20116;-73
2022/04/13 02:19:30;;;;;;;8.98;3.58;;;;;;;-146.34;100.00;58536.06;5030686;28;20067;-74
2022/04/13 02:21:55;;;;;;;6.68;4.03;;;;;;;-146.34;100.00;58536.06;5030789;28;20436;-74
2022/04/13 02:24:20;;;;;;;10.88;3.60;;;;;;;-146.34;100.00;58536.06;5030874;28;20137;-74
2022/04/13 02:26:46;;;;;;;7.30;3.70;;;;;;;-146.34;100.00;58536.06;5030620;28;20057;-74
2022/04/13 02:29:11;;;;;;;10.18;3.83;;;;;;;-146.34;100.00;58536.06;5031287;28;20065;-74
2022/04/13 02:31:37;;;;;;;8.88;3.33;;;;;;;-146.34;100.00;58536.06;5029546;28;20033;-74
2022/04/13 02:34:04;;;;;;;5.85;3.40;;;;;;;-146.34;100.00;58536.06;5032370;28;20031;-74
2022/04/13 02:36:30;;;;;;;7.10;3.30;;;;;;;-146.34;100.00;58536.06;5030430;28;20033;-73
2022/04/13 02:38:56;;;;;;;6.28;3.40;;;;;;;-146.34;100.00;58536.06;5043276;28;20040;-74
2022/04/13 02:41:21;;;;;;;7.40;3.58;;;;;;;-146.34;100.00;58536.06;5031051;28;20029;-74
2022/04/13 02:43:47;;;;;;;5.65;3.33;;;;;;;-146.34;100.00;58536.06;5029660;28;20036;-74
2022/04/13 02:46:12;;;;;;;7.00;3.22;;;;;;;-146.34;100.00;58536.06;5030143;28;20034;-73
2022/04/13 02:48:37;;;;;;;12.05;5.05;;;;;;;-146.34;100.00;58536.06;5029654;28;20032;-74
2022/04/13 02:51:03;;;;;;;7.88;4.57;;;;;;;-146.34;100.00;58536.06;5030615;28;20111;-73
2022/04/13 02:53:28;;;;;;;9.77;5.00;;;;;;;-146.34;100.00;58536.06;5046842;28;20566;-74
2022/04/13 02:55:54;;;;;;;7.38;4.88;;;;;;;-146.34;100.00;58536.06;5039430;28;20029;-74
2022/04/13 02:58:19;;;;;;;12.32;5.35;;;;;;;-146.34;100.00;58536.06;5030854;28;20448;-74
2022/04/13 03:00:45;;;;;;;13.15;5.30;;;;;;;-146.34;100.00;58536.06;5027070;28;20030;-73
2022/04/13 03:03:10;;;;;;;14.43;5.50;;;;;;;-146.34;100.00;58536.06;5012026;28;20438;-74
2022/04/13 03:05:37;;;;;;;13.15;6.13;;;;;;;-146.34;100.00;58536.06;5023489;28;20052;-74
2022/04/13 03:08:03;;;;;;;17.15;5.88;;;;;;;-146.34;100.00;58536.06;5027786;28;20477;-74
2022/04/13 03:10:28;;;;;;;12.23;6.07;;;;;;;-146.34;100.00;58536.06;5029086;28;20036;-74
2022/04/13 03:12:53;;;;;;;13.75;6.55;;;;;;;-146.34;100.00;58536.06;5009455;28;20045;-74
2022/04/13 03:15:22;;;;;;;13.75;5.70;;;;;;;-146.34;100.00;58536.06;5011736;28;20074;-74
2022/04/13 03:17:48;;;;;;;10.90;6.70;;;;;;;-146.34;100.00;58536.06;5028515;28;20035;-74
2022/04/13 03:20:13;;;;;;;12.88;6.55;;;;;;;-146.34;100.00;58536.06;5036824;28;20029;-74
2022/04/13 03:22:38;;;;;;;12.23;6.47;;;;;;;-146.34;100.00;58536.06;5028600;28;20040;-73
2022/04/13 03:25:04;;;;;;;15.15;6.45;;;;;;;-146.34;100.00;58536.06;5030900;28;20477;-74
2022/04/13 03:27:30;;;;;;;15.07;6.32;;;;;;;-146.34;100.00;58536.06;5013723;28;20120;-74
2022/04/13 03:29:55;;;;;;;12.73;7.30;;;;;;;-146.34;100.00;58536.06;5021040;28;20492;-74
2022/04/13 03:32:20;;;;;;;14.10;6.25;;;;;;;-146.34;100.00;58536.06;5016279;28;20406;-74
2022/04/13 03:34:46;;;;;;;13.27;7.20;;;;;;;-146.34;100.00;58536.06;5049025;28;20028;-74
2022/04/13 03:37:11;;;;;;;12.52;6.57;;;;;;;-146.34;100.00;58536.06;5033159;28;20064;-74
2022/04/13 03:39:36;;;;;;;13.30;7.30;;;;;;;-146.34;100.00;58536.06;5028673;28;20040;-74
2022/04/13 03:42:02;;;;;;;12.70;7.13;;;;;;;-146.34;100.00;58536.06;5028997;28;20033;-74
2022/04/13 03:44:28;;;;;;;14.80;6.70;;;;;;;-146.34;100.00;58536.06;5029570;28;20026;-73
2022/04/13 03:46:53;;;;;;;14.10;8.02;;;;;;;-146.34;100.00;58536.06;5028809;28;20036;-74
2022/04/13 03:49:19;;;;;;;12.93;7.60;;;;;;;-146.34;100.00;58536.06;5030645;28;20096;-74
2022/04/13 03:51:44;;;;;;;15.18;7.75;;;;;;;-146.34;100.00;58536.06;5028462;28;20401;-74
2022/04/13 03:54:09;;;;;;;13.98;8.10;;;;;;;-146.34;100.00;58536.06;5030259;28;20029;-74
2022/04/13 03:56:36;;;;;;;23.20;10.10;;;;;;;-146.34;100.00;58536.06;5018796;28;20416;-73
2022/04/13 03:59:03;;;;;;;14.88;7.43;;;;;;;-146.34;100.00;58536.06;5030398;28;20029;-74
2022/04/13 04:01:31;;;;;;;16.88;8.25;;;;;;;-146.34;100.00;58536.06;5040396;28;20040;-74
2022/04/13 04:03:57;;;;;;;22.17;8.32;;;;;;;-146.34;100.00;58536.06;5049424;28;20029;-74
2022/04/13 04:06:24;;;;;;;18.42;7.85;;;;;;;-146.34;100.00;58536.06;5034091;28;20042;-74
2022/04/13 04:08:49;;;;;;;20.27;8.10;;;;;;;-146.34;100.00;58536.06;5028179;28;20039;-74
2022/04/13 04:11:15;;;;;;;12.25;6.97;;;;;;;-146.34;100.00;58536.06;5030397;28;20033;-73
2022/04/13 04:13:40;;;;;;;10.73;7.20;;;;;;;-146.34;100.00;58536.06;5028166;28;20500;-73
2022/04/13 04:16:06;;;;;;;11.82;6.70;;;;;;;-146.34;100.00;58536.06;5028431;28;20026;-73
2022/04/13 04:18:31;;;;;;;17.75;7.10;;;;;;;-146.34;100.00;58536.06;5029931;28;20034;-73
2022/04/13 04:20:56;;;;;;;12.70;6.90;;;;;;;-146.34;100.00;58536.06;5028650;28;20021;-74
2022/04/13 04:23:22;;;;;;;9.73;5.95;;;;;;;-146.34;100.00;58536.06;5021198;28;20450;-74
2022/04/13 04:25:47;;;;;;;14.30;6.22;;;;;;;-146.34;100.00;58536.06;5009421;28;20037;-74
2022/04/13 04:28:13;;;;;;;15.93;6.35;;;;;;;-146.34;100.00;58536.06;5015976;28;20114;-73
2022/04/13 04:30:39;;;;;;;7.72;5.47;;;;;;;-146.34;100.00;58536.06;5028818;28;20059;-74
2022/04/13 04:33:08;;;;;;;12.25;5.88;;;;;;;-146.34;100.00;58536.06;5028899;28;20053;-74
2022/04/13 04:35:34;;;;;;;13.35;5.82;;;;;;;-146.34;100.00;58536.06;5032011;28;20025;-73
2022/04/13 04:38:00;;;;;;;12.95;6.35;;;;;;;-146.34;100.00;58536.06;5032029;28;20039;-73
2022/04/13 04:40:28;;;;;;;17.63;5.38;;;;;;;-146.34;100.00;58536.06;5034303;28;20041;-73
2022/04/13 04:42:54;;;;;;;12.65;5.88;;;;;;;-146.34;100.00;58536.06;5032511;28;20036;-73
2022/04/13 04:45:20;;;;;;;8.95;5.28;;;;;;;-146.34;100.00;58536.06;5033231;28;20121;-74
2022/04/13 04:47:47;;;;;;;11.48;5.88;;;;;;;-146.34;100.00;58536.06;5032368;28;20025;-74
2022/04/13 04:50:13;;;;;;;12.40;5.65;;;;;;;-146.34;100.00;58536.06;5013942;28;20033;-73
2022/04/13 04:52:43;;;;;;;12.85;5.90;;;;;;;-146.34;100.00;58536.06;5031120;28;20112;-74
2022/04/13 04:55:10;;;;;;;15.27;6.00;;;;;;;-146.34;100.00;58536.06;5033615;28;20025;-73
2022/04/13 04:57:38;;;;;;;9.17;5.70;;;;;;;-146.34;100.00;58536.06;5031431;28;20029;-74
2022/04/13 05:00:07;;;;;;;11.90;6.00;;;;;;;-146.34;100.00;58536.06;5007942;28;20516;-73
2022/04/13 05:02:32;;;;;;;10.25;5.78;;;;;;;-146.34;100.00;58536.06;5014123;28;20038;-74
2022/04/13 05:04:58;;;;;;;13.97;6.43;;;;;;;-146.34;100.00;58536.06;5020493;28;20519;-74
2022/04/13 05:07:23;;;;;;;10.63;5.83;;;;;;;-146.34;100.00;58536.06;5033636;28;20036;-74
2022/04/13 05:09:49;;;;;;;10.37;5.67;;;;;;;-146.34;100.00;58536.06;5031857;28;20025;-74
2022/04/13 05:12:14;;;;;;;13.33;5.73;;;;;;;-146.34;100.00;58536.06;5033596;28;20029;-73
2022/04/13 05:14:39;;;;;;;11.30;5.57;;;;;;;-146.34;100.00;58536.06;5036566;28;20017;-74
2022/04/13 05:17:05;;;;;;;17.17;7.17;;;;;;;-146.34;100.00;58536.06;5033640;28;20421;-74
2022/04/13 05:19:30;;;;;;;8.50;4.90;;;;;;;-146.34;100.00;58536.06;5030896;28;20473;-74
2022/04/13 05:21:55;;;;;;;9.50;5.57;;;;;;;-146.34;100.00;58536.06;5012557;28;20034;-74
2022/04/13 05:24:21;;;;;;;15.20;5.93;;;;;;;-146.34;100.00;58536.06;5048901;28;20132;-74
2022/04/13 05:26:46;;;;;;;15.93;5.80;;;;;;;-146.34;100.00;58536.06;5032384;28;20037;-74
2022/04/13 05:29:11;;;;;;;9.60;5.97;;;;;;;-146.34;100.00;58536.06;5032128;28;20439;-74
2022/04/13 05:31:37;;;;;;;12.97;6.13;;;;;;;-146.34;100.00;58536.06;5021771;28;20045;-74
2022/04/13 05:34:02;;;;;;;14.73;6.60;;;;;;;-146.34;100.00;58536.06;5035118;28;20029;-74
2022/04/13 05:36:28;;;;;;;17.10;7.43;;;;;;;-146.34;100.00;58536.06;5035670;28;20030;-74
2022/04/13 05:38:53;;;;;;;19.57;9.40;;;;;;;-146.34;100.00;58536.06;5031519;28;20025;-74
2022/04/13 05:41:18;;;;;;;35.03;16.53;;;;;;;-146.34;100.00;58536.06;5036430;28;20038;-74
2022/04/13 05:43:44;;;;;;;31.03;12.93;;;;;;;-146.34;100.00;58536.06;5046090;28;20041;-74
2022/04/13 05:46:09;;;;;;;25.43;11.33;;;;;;;-146.34;100.00;58536.06;5031138;28;20025;-74
2022/04/13 05:48:37;;;;;;;16.30;8.43;;;;;;;-146.34;100.00;58536.06;5034603;28;20607;-73
2022/04/13 05:51:03;;;;;;;14.75;7.70;;;;;;;-146.34;100.00;58536.06;5033149;28;20083;-74
2022/04/13 05:53:28;;;;;;;13.07;6.55;;;;;;;-146.34;100.00;58536.06;5030598;28;20057;-74
2022/04/13 05:55:56;;;;;;;13.25;7.00;;;;;;;-146.34;100.00;58536.06;5031031;28;20103;-73
2022/04/13 05:58:25;;;;;;;16.23;6.97;;;;;;;-146.34;100.00;58536.06;5015279;28;20040;-74
2022/04/13 06:00:51;;;;;;;13.55;6.82;;;;;;;-146.34;100.00;58536.06;5017160;28;20039;-74
2022/04/13 06:03:17;;;;;;;16.02;7.05;;;;;;;-146.34;100.00;58536.06;5031965;28;20033;-74
2022/04/13 06:05:43;;;;;;;16.23;6.80;;;;;;;-146.34;100.00;58536.06;5020017;28;20033;-74
2022/04/13 06:08:08;;;;;;;17.17;9.85;;;;;;;-146.34;100.00;58536.06;5031511;28;20037;-74
2022/04/13 06:10:33;;;;;;;13.00;6.72;;;;;;;-146.34;100.00;58536.06;5027685;28;20124;-74
2022/04/13 06:12:59;;;;;;;13.35;7.15;;;;;;;-146.34;100.00;58536.06;5031319;28;20025;-74
2022/04/13 06:15:24;;;;;;;14.70;7.30;;;;;;;-146.34;100.00;58536.06;5018708;28;20033;-74
2022/04/13 06:17:50;;;;;;;16.40;7.18;;;;;;;-146.34;100.00;58536.06;5038254;28;20056;-74
2022/04/13 06:20:15;;;;;;;11.25;5.88;;;;;;;-146.34;100.00;58536.06;5031516;28;20043;-74
2022/04/13 06:22:42;;;;;;;13.20;5.88;;;;;;;-146.34;100.00;58536.06;5042212;28;20034;-74
2022/04/13 06:25:09;;;;;;;11.70;5.82;;;;;;;-146.34;100.00;58536.06;5031669;28;20481;-74
2022/04/13 06:27:38;;;;;;;11.55;5.03;;;;;;;-146.34;100.00;58536.06;5022585;28;20061;-74
2022/04/13 06:30:04;;;;;;;12.05;5.20;;;;;;;-146.34;100.00;58536.06;5011517;28;20029;-74
2022/04/13 06:32:38;;;;;;;14.25;4.88;;;;;;;-146.34;100.00;58536.06;5020038;28;20408;-74
2022/04/13 06:35:05;;;;;;;10.63;4.78;;;;;;;-146.34;100.00;58536.06;5030637;28;20029;-74
2022/04/13 06:37:30;;;;;;;11.90;4.53;;;;;;;-146.34;100.00;58536.06;5022965;28;20029;-74
2022/04/13 06:39:56;;;;;;;9.57;4.45;;;;;;;-146.34;100.00;58536.06;5030504;28;20025;-74
2022/04/13 06:42:22;;;;;;;10.02;4.50;;;;;;;-146.34;100.00;58536.06;5031174;28;20044;-74
2022/04/13 06:44:56;;;;;;;10.25;4.00;;;;;;;-146.34;100.00;58536.06;5029994;28;20036;-74
2022/04/13 06:47:22;;;;;;;8.02;3.58;;;;;;;-146.34;100.00;58536.06;5030835;28;20033;-74
2022/04/13 06:49:47;;;;;;;13.48;4.25;;;;;;;-146.34;100.00;58536.06;5040621;28;20029;-73
2022/04/13 06:52:13;;;;;;;7.68;4.05;;;;;;;-146.34;100.00;58536.06;5035038;28;20025;-74
2022/04/13 06:54:39;;;;;;;8.40;3.70;;;;;;;-146.34;100.00;58536.06;5030835;28;20460;-73
2022/04/13 06:57:04;;;;;;;8.63;3.33;;;;;;;-146.34;100.00;58536.06;5027789;28;20037;-74
2022/04/13 06:59:30;;;;;;;8.60;3.40;;;;;;;-146.34;100.00;58536.06;5031360;28;20036;-73
2022/04/13 07:01:55;;;;;;;7.78;3.13;;;;;;;-146.34;100.00;58536.06;5031393;28;20524;-74
2022/04/13 07:04:20;;;;;;;9.30;3.70;;;;;;;-146.34;100.00;58536.06;5029585;28;20033;-74
2022/04/13 07:06:46;;;;;;;5.63;3.38;;;;;;;-146.34;100.00;58536.06;5009669;28;20109;-74
2022/04/13 07:09:11;;;;;;;7.55;3.60;;;;;;;-146.34;100.00;58536.06;5001746;28;20064;-74
2022/04/13 07:11:36;;;;;;;10.52;3.65;;;;;;;-146.34;100.00;58536.06;5029182;28;20029;-74
2022/04/13 07:14:02;;;;;;;9.93;4.00;;;;;;;-146.34;100.00;58536.06;5030387;28;20030;-74
2022/04/13 07:16:27;;;;;;;8.23;3.65;;;;;;;-146.34;100.00;58536.06;5030244;28;20025;-74
2022/04/13 07:18:53;;;;;;;8.27;3.90;;;;;;;-146.34;100.00;58536.06;5030479;28;20500;-74
2022/04/13 07:21:18;;;;;;;11.38;3.17;;;;;;;-146.34;100.00;58536.06;5030077;28;20132;-74
2022/04/13 07:23:43;;;;;;;9.38;3.83;;;;;;;-146.34;100.00;58536.06;5030324;28;20080;-74
2022/04/13 07:26:09;;;;;;;9.32;3.53;;;;;;;-146.34;100.00;58536.06;5031607;28;20065;-74
2022/04/13 07:28:34;;;;;;;11.40;3.45;;;;;;;-146.34;100.00;58536.06;5031249;28;20554;-74
2022/04/13 07:31:00;;;;;;;8.65;4.13;;;;;;;-146.34;100.00;58536.06;5030301;28;20028;-74
2022/04/13 07:33:25;;;;;;;10.45;3.78;;;;;;;-146.34;100.00;58536.06;5031600;28;20044;-74
2022/04/13 07:35:50;;;;;;;14.73;4.82;;;;;;;-146.34;100.00;58536.06;5030944;28;20101;-74
2022/04/13 07:38:16;;;;;;;8.65;4.15;;;;;;;-146.34;100.00;58536.06;5029035;28;20500;-74
2022/04/13 07:40:41;;;;;;;9.75;3.97;;;;;;;-146.34;100.00;58536.06;5027459;28;20366;-74
2022/04/13 07:43:07;;;;;;;8.02;3.42;;;;;;;-146.34;100.00;58536.06;5041241;28;20085;-74
2022/04/13 07:45:32;;;;;;;12.95;3.70;;;;;;;-146.34;100.00;58536.06;5050225;28;20029;-74
2022/04/13 07:47:58;;;;;;;10.02;3.78;;;;;;;-146.34;100.00;58536.06;5032384;28;20040;-74
2022/04/13 07:50:23;;;;;;;15.75;4.05;;;;;;;-146.34;100.00;58536.06;5029604;28;20617;-74
2022/04/13 07:52:49;;;;;;;11.60;3.38;;;;;;;-146.34;100.00;58536.06;5015161;28;20036;-74
2022/04/13 07:55:14;;;;;;;6.82;3.15;;;;;;;-146.34;100.00;58536.06;5023083;28;20033;-74
2022/04/13 07:57:41;;;;;;;7.85;3.70;;;;;;;-146.34;100.00;58536.06;5029634;28;20482;-74
2022/04/13 08:00:09;;;;;;;14.45;3.47;;;;;;;-146.34;100.00;58536.06;5029224;28;20528;-74
2022/04/13 08:02:39;;;;;;;8.68;3.10;;;;;;;-146.34;100.00;58536.06;5028698;28;20041;-74
2022/04/13 08:05:04;;;;;;;7.28;3.10;;;;;;;-146.34;100.00;58536.06;5032453;28;20037;-75
2022/04/13 08:07:30;;;;;;;8.38;3.38;;;;;;;-146.34;100.00;58536.06;5031771;28;20030;-74
2022/04/13 08:09:55;;;;;;;7.28;2.67;;;;;;;-146.34;100.00;58536.06;5037041;28;20417;-74
2022/04/13 08:12:20;;;;;;;14.90;3.42;;;;;;;-146.34;100.00;58536.06;5037291;28;20033;-74
2022/04/13 08:14:46;;;;;;;4.55;2.95;;;;;;;-146.34;100.00;58536.06;5049865;28;20104;-74
2022/04/13 08:17:13;;;;;;;6.72;3.10;;;;;;;-146.34;100.00;58536.06;5044183;28;20053;-74
2022/04/13 08:19:38;;;;;;;18.77;4.40;;;;;;;-146.34;100.00;58536.06;5033639;28;20383;-74
2022/04/13 08:22:04;;;;;;;12.77;3.50;;;;;;;-146.34;100.00;58536.06;5032039;28;20036;-74
2022/04/13 08:24:29;;;;;;;7.70;3.22;;;;;;;-146.34;100.00;58536.06;5031462;28;20603;-74
2022/04/13 08:26:58;;;;;;;8.20;2.80;;;;;;;-146.34;100.00;58536.06;5014498;28;20036;-74
2022/04/13 08:29:24;;;;;;;7.95;3.60;;;;;;;-146.34;100.00;58536.06;5033186;28;20020;-74
2022/04/13 08:31:50;;;;;;;7.93;2.80;;;;;;;-146.34;100.00;58536.06;5033987;28;20030;-74
2022/04/13 08:34:15;;;;;;;10.35;3.50;;;;;;;-146.34;100.00;58536.06;5027088;28;20448;-74
2022/04/13 08:36:40;;;;;;;7.75;3.17;;;;;;;-146.34;100.00;58536.06;5029082;28;20056;-73
2022/04/13 08:39:13;;;;;;;15.73;4.25;;;;;;;-146.34;100.00;58536.06;5029638;28;20036;-74
2022/04/13 08:41:44;;;;;;;;;;;;;;;-146.34;100.00;58536.06;5013811;28;20032;-74
2022/04/13 08:44:34;;;;;;;8.65;3.90;;;;;;;-146.34;100.00;58536.06;5015307;28;20588;-74
2022/04/13 08:47:06;;;;;;;11.52;4.03;;;;;;;-146.34;100.00;58536.06;5032692;28;20045;-74
2022/04/13 08:49:34;;;;;;;7.70;3.22;;;;;;;-146.34;100.00;58536.06;5025366;28;20045;-74
2022/04/13 08:52:04;;;;;;;9.20;2.60;;;;;;;-146.34;100.00;58536.06;5020608;28;20025;-73
2022/04/13 08:54:45;;;;;;;10.77;2.90;;;;;;;-146.34;100.00;58536.06;5033901;28;20033;-73
2022/04/13 08:57:12;;;;;;;10.40;3.53;;;;;;;-146.34;100.00;58536.06;5033240;28;20116;-74
2022/04/13 08:59:43;;;;;;;8.02;2.95;;;;;;;-146.34;100.00;58536.06;5015134;28;20104;-73
2022/04/13 09:02:25;;;;;;;10.65;3.33;;;;;;;-146.34;100.00;58536.06;5022921;28;20075;-74
2022/04/13 09:04:56;;;;;;;8.68;3.00;;;;;;;-146.34;100.00;58536.06;5023049;28;20113;-74
2022/04/13 09:07:27;;;;;;;14.02;2.90;;;;;;;-146.34;100.00;58536.06;5026742;28;20039;-74
2022/04/13 09:09:53;;;;;;;9.38;3.58;;;;;;;-146.34;100.00;58536.06;5031325;28;20032;-74
2022/04/13 09:12:19;;;;;;;32.00;6.13;;;;;;;-146.34;100.00;58536.06;5017480;28;20170;-73
2022/04/13 09:14:45;;;;;;;9.43;2.30;;;;;;;-146.34;100.00;58536.06;5028985;28;20050;-73
2022/04/13 09:17:11;;;;;;;6.90;2.22;;;;;;;-146.34;100.00;58536.06;5045001;28;20053;-74
2022/04/13 09:19:37;;;;;;;7.78;2.70;;;;;;;-146.34;100.00;58536.06;5017977;28;20022;-73
2022/04/13 09:22:07;;;;;;;5.82;2.45;;;;;;;-146.34;100.00;58536.06;5033632;28;20037;-74
2022/04/13 09:24:38;;;;;;;11.85;3.08;;;;;;;-146.34;100.00;58536.06;5011877;28;20136;-73
2022/04/13 09:27:04;;;;;;;10.25;2.90;;;;;;;-146.34;100.00;58536.06;5037948;28;20025;-73
2022/04/13 09:29:30;;;;;;;6.47;2.22;;;;;;;-146.34;100.00;58536.06;5031442;28;20439;-74
2022/04/13 09:31:55;;;;;;;5.50;2.05;;;;;;;-146.34;100.00;58536.06;5026155;28;20029;-73
2022/04/13 09:34:21;;;;;;;8.82;2.65;;;;;;;-146.34;100.00;58536.06;5033218;28;20474;-73
2022/04/13 09:36:47;;;;;;;6.03;2.05;;;;;;;-146.34;100.00;58536.06;5042979;28;20025;-73
2022/04/13 09:39:15;;;;;;;11.25;3.15;;;;;;;-146.34;100.00;58536.06;5030394;28;20116;-73
2022/04/13 09:41:40;;;;;;;7.72;2.97;;;;;;;-146.34;100.00;58536.06;5032789;28;20095;-74
2022/04/13 09:44:15;;;;;;;9.57;2.35;;;;;;;-146.34;100.00;58536.06;5033187;28;20100;-73
2022/04/13 09:46:42;;;;;;;8.70;2.70;;;;;;;-146.34;100.00;58536.06;5030309;28;20523;-74
2022/04/13 09:49:08;;;;;;;10.13;2.90;;;;;;;-146.34;100.00;58536.06;5032250;28;20104;-74
2022/04/13 09:51:38;;;;;;;9.07;2.92;;;;;;;-146.34;100.00;58536.06;5022913;28;20033;-74
2022/04/13 09:54:06;;;;;;;16.77;5.18;;;;;;;-146.34;100.00;58536.06;5032671;28;20497;-74
2022/04/13 09:56:38;;;;;;;11.23;3.50;;;;;;;-146.34;100.00;58536.06;5029574;28;20033;-73
2022/04/13 09:59:07;;;;;;;11.93;4.05;;;;;;;-146.34;100.00;58536.06;5029324;28;20111;-74
2022/04/13 10:01:34;;;;;;;12.65;3.33;;;;;;;-146.34;100.00;58536.06;5028687;28;20100;-73
2022/04/13 10:04:00;;;;;;;12.77;3.80;;;;;;;-146.34;100.00;58536.06;5031593;28;20069;-74
2022/04/13 10:06:30;;;;;;;9.18;4.18;;;;;;;-146.34;100.00;58536.06;5024998;28;20478;-73
2022/04/13 10:09:06;;;;;;;14.68;4.78;;;;;;;-146.34;100.00;58536.06;5032424;28;20256;-74
2022/04/13 10:11:32;;;;;;;11.75;4.07;;;;;;;-146.34;100.00;58536.06;5031994;28;20025;-74
2022/04/13 10:14:01;;;;;;;9.75;4.80;;;;;;;-146.34;100.00;58536.06;5030952;28;20022;-73
2022/04/13 10:16:32;;;;;;;11.30;4.53;;;;;;;-146.34;100.00;58536.06;5046561;28;20082;-73
2022/04/13 10:19:05;;;;;;;23.70;7.82;;;;;;;-146.34;100.00;58536.06;5049459;28;20021;-74
2022/04/13 10:21:42;;;;;;;13.07;4.70;;;;;;;-146.34;100.00;58536.06;5030763;28;20029;-73
2022/04/13 10:24:10;;;;;;;10.25;4.53;;;;;;;-146.34;100.00;58536.06;5016934;28;20096;-74
2022/04/13 10:26:36;;;;;;;13.48;4.65;;;;;;;-146.34;100.00;58536.06;5029569;28;20136;-74
2022/04/13 10:29:14;;;;;;;17.27;5.40;;;;;;;-146.34;100.00;58536.06;5037192;28;20033;-73
2022/04/13 10:31:39;;;;;;;13.70;4.57;;;;;;;-146.34;100.00;58536.06;5027358;28;20108;-74
2022/04/13 10:34:05;;;;;;;12.75;5.18;;;;;;;-146.34;100.00;58536.06;5042840;28;20104;-74
2022/04/13 10:36:31;;;;;;;16.73;4.45;;;;;;;-146.34;100.00;58536.06;5025531;28;20160;-74
2022/04/13 10:38:56;;;;;;;16.17;4.68;;;;;;;-146.34;100.00;58536.06;5032433;28;20041;-74
2022/04/13 10:41:22;;;;;;;12.75;4.82;;;;;;;-146.34;100.00;58536.06;5027540;28;20120;-74
2022/04/13 10:43:50;;;;;;;12.05;4.55;;;;;;;-146.34;100.00;58536.06;5012733;28;20017;-74
2022/04/13 10:46:20;;;;;;;15.65;5.82;;;;;;;-146.34;100.00;58536.06;5030126;28;20040;-74
2022/04/13 10:48:54;;;;;;;14.05;5.93;;;;;;;-146.34;100.00;58536.06;5011306;28;20037;-74
2022/04/13 10:51:23;;;;;;;16.58;4.97;;;;;;;-146.34;100.00;58536.06;5034650;28;20041;-74
2022/04/13 10:53:59;;;;;;;10.50;4.68;;;;;;;-146.34;100.00;58536.06;5031366;28;20495;-74
2022/04/13 10:56:27;;;;;;;9.23;4.13;;;;;;;-146.34;100.00;58536.06;5029768;28;20030;-74
2022/04/13 10:59:07;;;;;;;14.50;4.90;;;;;;;-146.34;100.00;58536.06;5016148;28;20040;-74
2022/04/13 11:01:43;;;;;;;9.20;4.03;;;;;;;-146.34;100.00;58536.06;5016303;28;20044;-75